Time;durP1;ratioP1;P1;durP2;ratioP2;P2;SDS_P1;SDS_P2;PMS_P1;PMS_P2;Temp;Humidity;BMP_temperature;BMP_pressure;BME280_temperature;BME280_humidity;BME280_pressure;Samples;Min_cycle;Max_cycle;Signal;HPM_P1;HPM_P2
2023/01/29 00:01:19;;;;;;;3.50;3.30;;;;;;;-6.64;100.00;102404.13;6174252;23;20146;-74
2023/01/29 00:03:45;;;;;;;5.50;4.55;;;;;;;-5.74;100.00;102547.81;6139591;23;20033;-76
2023/01/29 00:06:11;;;;;;;4.47;4.22;;;;;;;-6.33;100.00;102441.28;6165838;23;20387;-75
2023/01/29 00:08:38;;;;;;;4.72;4.03;;;;;;;-5.76;100.00;102525.56;6138640;23;20549;-75
2023/01/29 00:11:07;;;;;;;3.45;3.13;;;;;;;-5.45;100.00;102587.50;6144250;23;20024;-74
2023/01/29 00:13:34;;;;;;;4.80;4.50;;;;;;;-5.63;100.00;102556.84;6142690;23;20021;-73
2023/01/29 00:16:01;;;;;;;5.50;5.10;;;;;;;-6.16;100.00;102480.34;6167684;23;20333;-74
2023/01/29 00:18:28;;;;;;;5.03;3.92;;;;;;;-5.52;100.00;102577.78;6142964;23;20029;-76
2023/01/29 00:20:55;;;;;;;6.85;3.80;;;;;;;-6.28;100.00;102455.13;6138247;23;20283;-74
2023/01/29 00:23:22;;;;;;;7.68;3.65;;;;;;;-5.53;100.00;102583.72;6141786;23;20088;-77
2023/01/29 00:25:48;;;;;;;4.38;4.07;;;;;;;-6.04;100.00;102492.00;6169912;23;20044;-74
2023/01/29 00:28:15;;;;;;;3.40;3.17;;;;;;;-5.73;100.00;102544.47;6117501;23;20582;-74
2023/01/29 00:30:41;;;;;;;5.25;3.60;;;;;;;-5.65;100.00;102547.38;6170413;23;20569;-75
2023/01/29 00:33:07;;;;;;;5.40;4.55;;;;;;;-5.96;100.00;102502.56;6142336;23;20533;-73
2023/01/29 00:35:34;;;;;;;2.58;2.47;;;;;;;-5.89;100.00;102512.25;6139116;23;20332;-74
2023/01/29 00:38:00;;;;;;;2.92;2.83;;;;;;;-6.03;100.00;102477.56;6168571;23;20016;-76
2023/01/29 00:40:27;;;;;;;7.70;3.63;;;;;;;-5.72;100.00;102530.88;6140956;23;20073;-75
2023/01/29 00:45:38;;;;;;;4.50;4.20;;;;;;;-5.77;100.00;102545.16;6138757;23;20223;-77
2023/01/29 00:48:05;;;;;;;4.30;4.05;;;;;;;-5.81;100.00;102516.00;6140662;23;20040;-74
2023/01/29 00:50:31;;;;;;;7.22;4.20;;;;;;;-5.56;100.00;102559.69;6159349;23;20082;-75
2023/01/29 00:52:58;;;;;;;4.20;3.88;;;;;;;-6.25;100.00;102478.28;6136155;23;20037;-76
2023/01/29 00:55:24;;;;;;;4.30;4.10;;;;;;;-5.76;100.00;102544.31;6140602;23;20025;-76
2023/01/29 00:57:50;;;;;;;4.63;4.25;;;;;;;-5.79;100.00;102533.97;6158653;23;20494;-74
2023/01/29 01:00:18;;;;;;;3.55;3.25;;;;;;;-6.38;100.00;102450.41;6114105;23;20080;-76
2023/01/29 01:05:42;;;;;;;5.22;3.67;;;;;;;-6.31;100.00;102444.78;6127766;23;20349;-75
2023/01/29 01:11:04;;;;;;;3.83;3.63;;;;;;;-6.08;100.00;102499.47;6140961;23;20092;-77
2023/01/29 01:13:32;;;;;;;2.47;2.38;;;;;;;-6.49;100.00;102439.72;6115557;23;20036;-76
2023/01/29 01:15:59;;;;;;;4.75;4.32;;;;;;;-6.54;100.00;102446.28;6144154;23;20017;-76
2023/01/29 01:18:29;;;;;;;4.25;3.38;;;;;;;-6.10;100.00;102514.72;6144720;23;20025;-75
2023/01/29 01:20:58;;;;;;;4.00;3.80;;;;;;;-5.81;100.00;102559.47;6141244;23;20024;-76
2023/01/29 01:23:24;;;;;;;3.78;3.58;;;;;;;-6.34;100.00;102485.50;6169296;23;20024;-75
2023/01/29 01:25:51;;;;;;;4.28;3.88;;;;;;;-6.31;100.00;102483.09;6141531;23;20473;-75
2023/01/29 01:28:17;;;;;;;4.85;3.90;;;;;;;-6.31;100.00;102457.56;6170174;23;20307;-75
2023/01/29 01:30:43;;;;;;;3.97;3.67;;;;;;;-6.22;100.00;102466.47;6138198;23;20380;-75
2023/01/29 01:33:10;;;;;;;3.80;3.60;;;;;;;-6.05;100.00;102495.38;6166051;23;20220;-73
2023/01/29 01:35:37;;;;;;;3.58;3.35;;;;;;;-5.72;100.00;102565.81;6141320;23;20017;-76
2023/01/29 01:38:04;;;;;;;8.50;3.50;;;;;;;-6.15;100.00;102513.66;6138929;23;20033;-75
2023/01/29 01:40:30;;;;;;;4.10;3.63;;;;;;;-6.76;100.00;102394.22;6139226;23;20079;-74
2023/01/29 01:42:59;;;;;;;5.57;4.35;;;;;;;-5.87;100.00;102556.63;6142316;23;20025;-74
2023/01/29 01:45:28;;;;;;;11.32;4.20;;;;;;;-5.89;100.00;102545.47;6140395;23;20029;-74
2023/01/29 01:48:00;;;;;;;4.18;3.65;;;;;;;-6.56;100.00;102430.88;6147938;23;20036;-74
2023/01/29 01:50:33;;;;;;;8.90;4.43;;;;;;;-6.66;100.00;102406.59;6167275;23;20024;-75
2023/01/29 01:53:09;;;;;;;3.10;3.00;;;;;;;-5.93;100.00;102527.34;6143369;23;20005;-74
2023/01/29 01:55:42;;;;;;;3.60;3.30;;;;;;;-5.89;100.00;102517.34;6143303;23;20057;-74
2023/01/29 01:58:12;;;;;;;4.72;4.43;;;;;;;-5.87;100.00;102527.66;6136285;23;20765;-75
2023/01/29 02:00:39;;;;;;;5.05;4.50;;;;;;;-5.98;100.00;102509.28;6143070;23;20008;-74
2023/01/29 02:11:30;;;;;;;4.18;3.88;;;;;;;-7.62;100.00;102248.28;6143883;23;20058;-75
2023/01/29 02:13:58;;;;;;;4.10;3.72;;;;;;;-6.46;100.00;102455.16;6172318;23;20020;-74
2023/01/29 02:16:25;;;;;;;6.82;5.82;;;;;;;-6.40;100.00;102488.66;6142464;23;20086;-74
2023/01/29 02:18:51;;;;;;;4.55;4.18;;;;;;;-6.38;100.00;102465.72;6170110;23;20036;-75
2023/01/29 02:21:35;;;;;;;8.57;3.42;;;;;;;-6.00;100.00;102540.72;6145101;23;20100;-76
2023/01/29 02:24:20;;;;;;;4.20;4.00;;;;;;;-6.02;100.00;102545.75;6138519;23;20092;-75
2023/01/29 02:27:13;;;;;;;4.30;4.00;;;;;;;-6.37;100.00;102485.34;6109302;23;20027;-73
2023/01/29 02:29:42;;;;;;;;;;;;;;;-6.06;100.00;102539.59;6113570;23;20021;-75
2023/01/29 02:32:23;;;;;;;3.53;3.33;;;;;;;-6.06;100.00;102539.59;6140355;23;19962;-76
2023/01/29 02:37:42;;;;;;;5.15;4.32;;;;;;;-6.74;100.00;102440.25;6136101;23;20400;-75
2023/01/29 02:40:21;;;;;;;3.55;3.38;;;;;;;-6.09;100.00;102554.81;6171759;23;20332;-74
2023/01/29 02:43:18;;;;;;;4.68;2.40;;;;;;;-6.80;100.00;102447.63;6144149;23;20828;-75
2023/01/29 02:46:09;;;;;;;4.85;3.85;;;;;;;-6.18;100.00;102546.72;6094400;23;20024;-75
2023/01/29 02:48:41;;;;;;;3.45;3.25;;;;;;;-6.58;100.00;102480.13;6170969;23;20352;-74
2023/01/29 02:51:23;;;;;;;3.13;3.03;;;;;;;-6.64;100.00;102465.41;6112087;23;20031;-76
2023/01/29 02:54:00;;;;;;;4.30;3.97;;;;;;;-5.90;100.00;102578.63;6133471;23;20331;-74
2023/01/29 02:56:35;;;;;;;7.95;4.68;;;;;;;-6.57;100.00;102466.53;6139173;23;20013;-76
2023/01/29 02:59:10;;;;;;;3.85;3.55;;;;;;;-6.40;100.00;102500.56;6145832;23;20488;-75
2023/01/29 03:01:49;;;;;;;3.30;3.10;;;;;;;-6.10;100.00;102540.28;6143030;23;20047;-75
2023/01/29 03:04:21;;;;;;;2.97;2.88;;;;;;;-5.77;100.00;102587.72;6114439;23;20029;-75
2023/01/29 03:06:53;;;;;;;5.10;4.78;;;;;;;-7.04;100.00;102361.44;6142192;23;20025;-75
2023/01/29 03:09:29;;;;;;;3.47;3.28;;;;;;;-5.70;100.00;102571.84;6113929;23;20019;-75
2023/01/29 03:12:17;;;;;;;6.05;4.43;;;;;;;-5.71;100.00;102568.44;6142038;23;20029;-75
2023/01/29 03:17:43;;;;;;;3.50;3.30;;;;;;;-6.47;100.00;102433.88;6142159;23;20017;-75
2023/01/29 03:20:16;;;;;;;2.53;2.42;;;;;;;-6.35;100.00;102463.31;6170938;23;20032;-75
2023/01/29 03:22:49;;;;;;;4.00;3.80;;;;;;;-5.90;100.00;102540.28;6140733;23;20212;-75
2023/01/29 03:33:47;;;;;;;4.40;4.00;;;;;;;-6.55;100.00;102460.72;6140236;23;20009;-74
2023/01/29 03:36:36;;;;;;;3.60;3.40;;;;;;;-7.32;100.00;102314.22;6168765;23;20044;-74
2023/01/29 03:39:10;;;;;;;3.45;3.30;;;;;;;-6.63;100.00;102437.38;6136193;23;20009;-75
2023/01/29 03:41:41;;;;;;;4.63;4.07;;;;;;;-5.99;100.00;102548.47;6134129;23;20277;-74
2023/01/29 03:44:23;;;;;;;7.63;6.35;;;;;;;-6.24;100.00;102513.22;6142437;23;20078;-74
2023/01/29 03:47:03;;;;;;;3.95;3.75;;;;;;;-6.25;100.00;102509.78;6167266;23;20540;-75
2023/01/29 03:49:48;;;;;;;5.65;4.95;;;;;;;-5.82;100.00;102560.25;6146546;23;20025;-74
2023/01/29 03:52:24;;;;;;;4.38;3.97;;;;;;;-5.78;100.00;102552.75;6172284;23;20015;-74
2023/01/29 03:55:01;;;;;;;6.70;3.85;;;;;;;-6.36;100.00;102451.34;6148301;23;20024;-73
2023/01/29 03:57:35;;;;;;;4.10;3.10;;;;;;;-6.14;100.00;102454.06;6172464;23;20085;-74
2023/01/29 04:00:20;;;;;;;7.70;5.65;;;;;;;-5.63;100.00;102569.66;6141034;23;20761;-76
2023/01/29 04:03:19;;;;;;;6.63;5.05;;;;;;;-5.83;100.00;102504.84;6173962;23;20442;-73
2023/01/29 04:06:08;;;;;;;3.47;3.03;;;;;;;-6.00;100.00;102489.59;6142389;23;20044;-72
2023/01/29 04:08:44;;;;;;;2.35;2.25;;;;;;;-6.55;100.00;102386.69;6150111;23;20041;-73
2023/01/29 04:11:15;;;;;;;5.97;5.40;;;;;;;-6.19;100.00;102460.66;6151912;23;20017;-75
2023/01/29 04:13:42;;;;;;;4.63;3.33;;;;;;;-5.67;100.00;102543.88;6120104;23;20486;-75
2023/01/29 04:16:15;;;;;;;3.22;3.08;;;;;;;-5.69;100.00;102538.69;6144974;23;20069;-74
2023/01/29 04:18:44;;;;;;;5.53;4.25;;;;;;;-5.96;100.00;102494.03;6117384;23;20432;-75
2023/01/29 04:21:11;;;;;;;3.63;3.42;;;;;;;-6.05;100.00;102486.84;6148069;23;20009;-74
2023/01/29 04:23:38;;;;;;;5.47;5.07;;;;;;;-6.45;100.00;102418.63;6106932;23;20119;-73
2023/01/29 04:26:17;;;;;;;3.20;3.03;;;;;;;-6.59;100.00;102406.88;6137119;23;20476;-74
2023/01/29 04:29:39;;;;;;;5.20;4.00;;;;;;;-6.10;100.00;102488.28;6172645;23;20551;-74
2023/01/29 04:32:17;;;;;;;4.05;3.85;;;;;;;-7.33;100.00;102270.81;6094812;23;20058;-74
2023/01/29 04:34:58;;;;;;;3.72;3.42;;;;;;;-5.94;100.00;102505.16;6142754;23;20093;-75
2023/01/29 04:37:36;;;;;;;3.80;3.33;;;;;;;-5.96;100.00;102494.03;6142177;23;20361;-75
2023/01/29 04:40:18;;;;;;;6.68;4.20;;;;;;;-5.99;100.00;102493.88;6172255;23;20076;-75
2023/01/29 04:42:53;;;;;;;2.78;2.58;;;;;;;-6.04;100.00;102492.00;6140892;23;20342;-74
2023/01/29 04:45:35;;;;;;;3.67;3.47;;;;;;;-6.71;100.00;102382.56;6167072;23;20170;-74
2023/01/29 04:48:10;;;;;;;4.88;3.45;;;;;;;-6.25;100.00;102475.72;6137068;23;20499;-72
2023/01/29 04:50:48;;;;;;;7.88;4.43;;;;;;;-6.11;100.00;102505.31;6148345;23;20447;-75
2023/01/29 04:53:43;;;;;;;3.25;3.15;;;;;;;-6.13;100.00;102496.72;6170663;23;20017;-77
2023/01/29 04:56:15;;;;;;;8.60;3.92;;;;;;;-6.89;100.00;102367.25;6136015;23;20494;-75
2023/01/29 04:58:48;;;;;;;2.22;2.13;;;;;;;-8.02;100.00;102164.84;6175174;23;20031;-76
2023/01/29 05:01:18;;;;;;;5.53;5.18;;;;;;;-6.08;100.00;102479.88;6118880;23;20150;-74
2023/01/29 05:03:49;;;;;;;2.40;2.30;;;;;;;-6.07;100.00;102471.44;6119676;23;20021;-73
2023/01/29 05:06:18;;;;;;;3.85;3.65;;;;;;;-6.51;100.00;102403.88;6137314;23;20396;-75
2023/01/29 05:08:48;;;;;;;6.00;4.93;;;;;;;-6.46;100.00;102410.06;6136167;23;20029;-74
2023/01/29 05:11:16;;;;;;;4.28;3.85;;;;;;;-6.13;100.00;102452.38;6112707;23;20005;-74
2023/01/29 05:13:44;;;;;;;3.17;2.97;;;;;;;-7.13;100.00;102285.34;6167307;23;20087;-76
2023/01/29 05:16:18;;;;;;;3.00;2.80;;;;;;;-5.94;100.00;102483.03;6141521;23;20032;-74
2023/01/29 05:18:45;;;;;;;3.58;3.30;;;;;;;-6.53;100.00;102382.50;6172862;23;20076;-75
2023/01/29 05:21:12;;;;;;;3.53;3.22;;;;;;;-5.95;100.00;102473.66;6145305;23;20043;-74
2023/01/29 05:23:38;;;;;;;2.78;2.67;;;;;;;-6.75;100.00;102328.75;6147919;23;20016;-75
2023/01/29 05:26:04;;;;;;;3.13;3.00;;;;;;;-6.49;100.00;102368.19;6108561;23;20034;-75
2023/01/29 05:28:32;;;;;;;3.97;3.65;;;;;;;-6.50;100.00;102372.41;6154794;23;20028;-74
2023/01/29 05:30:58;;;;;;;7.53;5.38;;;;;;;-5.89;100.00;102471.34;6115356;23;20029;-73
2023/01/29 05:33:30;;;;;;;2.65;2.55;;;;;;;-6.30;100.00;102401.41;6141518;23;20031;-75
2023/01/29 05:36:00;;;;;;;5.00;4.60;;;;;;;-5.92;100.00;102462.66;6134470;23;20020;-74
2023/01/29 05:38:26;;;;;;;3.25;3.05;;;;;;;-5.93;100.00;102489.91;6140833;23;20100;-74
2023/01/29 05:40:53;;;;;;;4.18;3.78;;;;;;;-6.43;100.00;102392.31;6174601;23;20021;-74
2023/01/29 05:43:22;;;;;;;7.13;4.95;;;;;;;-6.17;100.00;102436.06;6144215;23;20031;-75
2023/01/29 05:45:57;;;;;;;12.50;5.60;;;;;;;-6.12;100.00;102454.13;6140988;23;20033;-75
2023/01/29 05:48:28;;;;;;;11.80;5.60;;;;;;;-6.34;100.00;102416.53;6146594;23;20103;-75
2023/01/29 05:51:02;;;;;;;2.80;2.60;;;;;;;-6.24;100.00;102432.31;6116517;23;20027;-74
2023/01/29 05:53:29;;;;;;;4.90;4.45;;;;;;;-6.06;100.00;102474.84;6117868;23;20017;-73
2023/01/29 05:56:00;;;;;;;4.50;4.20;;;;;;;-6.69;100.00;102362.22;6142965;23;20005;-74
2023/01/29 05:58:26;;;;;;;3.10;3.00;;;;;;;-6.42;100.00;102408.53;6138853;23;20081;-75
2023/01/29 06:00:52;;;;;;;4.18;3.97;;;;;;;-6.25;100.00;102445.06;6152593;23;20093;-76
2023/01/29 06:03:19;;;;;;;3.88;3.05;;;;;;;-6.97;100.00;102301.38;6166520;23;20087;-73
2023/01/29 06:05:45;;;;;;;2.67;2.58;;;;;;;-6.62;100.00;102366.75;6143828;23;20031;-75
2023/01/29 06:08:12;;;;;;;4.13;3.80;;;;;;;-6.05;100.00;102463.84;6117071;23;20025;-76
2023/01/29 06:10:38;;;;;;;2.88;2.78;;;;;;;-6.70;100.00;102365.53;6171774;23;20043;-75
2023/01/29 06:13:05;;;;;;;5.93;3.58;;;;;;;-6.49;100.00;102412.50;6143938;23;20058;-75
2023/01/29 06:15:32;;;;;;;4.82;4.38;;;;;;;-6.18;100.00;102454.72;6168000;23;20026;-74
2023/01/29 06:17:58;;;;;;;8.43;3.40;;;;;;;-6.31;100.00;102439.69;6143140;23;20489;-74
2023/01/29 06:20:25;;;;;;;3.08;2.88;;;;;;;-6.75;100.00;102365.34;6143900;23;20097;-75
2023/01/29 06:22:51;;;;;;;3.38;3.17;;;;;;;-6.60;100.00;102390.69;6144363;23;20268;-74
2023/01/29 06:25:17;;;;;;;6.15;5.00;;;;;;;-6.08;100.00;102484.13;6140301;23;20036;-76
2023/01/29 06:27:44;;;;;;;3.60;3.40;;;;;;;-6.08;100.00;102494.34;6170873;23;20089;-74
2023/01/29 06:30:11;;;;;;;9.07;5.00;;;;;;;-6.04;100.00;102498.78;6140360;23;20076;-75
2023/01/29 06:32:37;;;;;;;4.00;3.80;;;;;;;-6.54;100.00;102398.63;6144734;23;20087;-73
2023/01/29 06:35:04;;;;;;;4.13;3.78;;;;;;;-6.72;100.00;102368.03;6141669;23;20031;-73
2023/01/29 06:37:30;;;;;;;3.28;3.03;;;;;;;-6.02;100.00;102464.81;6165240;23;20087;-74
2023/01/29 06:39:57;;;;;;;2.72;2.53;;;;;;;-5.76;100.00;102487.22;6138923;23;20138;-72
2023/01/29 06:42:26;;;;;;;2.60;2.45;;;;;;;-5.90;100.00;102445.69;6170619;23;20093;-74
2023/01/29 06:44:56;;;;;;;2.65;2.55;;;;;;;-5.68;100.00;102489.28;6140878;23;20386;-74
2023/01/29 06:47:23;;;;;;;4.30;4.00;;;;;;;-5.31;100.00;102516.44;6171456;23;20025;-75
2023/01/29 06:49:50;;;;;;;4.68;4.22;;;;;;;-5.25;100.00;102511.59;6140577;23;20031;-73
2023/01/29 06:52:16;;;;;;;3.58;3.38;;;;;;;-6.80;100.00;102238.31;6171234;23;20021;-75
2023/01/29 06:54:42;;;;;;;8.63;3.63;;;;;;;-5.09;100.00;102519.88;6113766;23;20040;-73
2023/01/29 06:57:09;;;;;;;3.72;3.47;;;;;;;-5.65;100.00;102416.94;6115240;23;20021;-72
2023/01/29 06:59:35;;;;;;;7.03;6.30;;;;;;;-5.20;100.00;102468.25;6145460;23;20023;-77
2023/01/29 07:02:02;;;;;;;4.10;2.92;;;;;;;-5.43;100.00;102424.69;6143169;23;20039;-73
2023/01/29 07:04:29;;;;;;;2.33;2.22;;;;;;;-5.15;100.00;102453.97;6140504;23;20358;-75
2023/01/29 07:06:55;;;;;;;5.75;4.90;;;;;;;-5.24;100.00;102420.31;6173968;23;20400;-78
2023/01/29 07:09:21;;;;;;;3.17;3.08;;;;;;;-4.94;100.00;102451.38;6116429;23;20024;-75
2023/01/29 07:11:48;;;;;;;3.55;3.25;;;;;;;-4.78;100.00;102458.00;6144943;23;20112;-76
2023/01/29 07:14:14;;;;;;;4.75;4.50;;;;;;;-4.98;100.00;102417.94;6134271;23;20084;-75
2023/01/29 07:16:41;;;;;;;4.45;4.05;;;;;;;-4.90;100.00;102430.22;6143944;23;20591;-73
2023/01/29 07:19:07;;;;;;;13.20;4.93;;;;;;;-4.77;100.00;102452.06;6139760;23;20137;-75
2023/01/29 07:21:34;;;;;;;3.55;3.35;;;;;;;-4.62;100.00;102464.59;6139303;23;20669;-74
2023/01/29 07:24:00;;;;;;;4.22;4.03;;;;;;;-4.53;100.00;102464.06;6173153;23;20095;-75
2023/01/29 07:26:26;;;;;;;4.57;3.88;;;;;;;-4.96;100.00;102389.00;6140056;23;20009;-74
2023/01/29 07:28:53;;;;;;;2.75;2.55;;;;;;;-4.43;100.00;102472.16;6129343;23;20039;-74
2023/01/29 07:31:20;;;;;;;5.07;4.40;;;;;;;-4.51;100.00;102455.63;6114678;23;20187;-73
2023/01/29 07:33:46;;;;;;;12.05;5.88;;;;;;;-4.89;100.00;102383.31;6105572;23;20032;-72
2023/01/29 07:36:13;;;;;;;6.22;5.80;;;;;;;-4.33;100.00;102475.06;6133750;23;20049;-72
2023/01/29 07:38:40;;;;;;;4.65;4.25;;;;;;;-4.68;100.00;102408.88;6142612;23;20064;-73
2023/01/29 07:41:09;;;;;;;3.30;3.10;;;;;;;-4.20;100.00;102487.53;6126065;23;20365;-72
2023/01/29 07:43:35;;;;;;;3.42;2.75;;;;;;;-4.53;100.00;102415.38;6142511;23;20024;-74
2023/01/29 07:46:03;;;;;;;2.85;2.72;;;;;;;-4.08;100.00;102492.25;6113514;23;20028;-70
2023/01/29 07:48:30;;;;;;;3.97;3.65;;;;;;;-4.52;100.00;102417.13;6135717;23;20051;-71
2023/01/29 07:50:57;;;;;;;5.53;4.30;;;;;;;-4.04;100.00;102482.16;6145062;23;20021;-73
2023/01/29 07:53:24;;;;;;;2.80;2.60;;;;;;;-4.01;100.00;102466.88;6138684;23;20193;-71
2023/01/29 07:55:51;;;;;;;3.20;3.00;;;;;;;-4.18;100.00;102424.38;6169025;23;20414;-73
2023/01/29 07:58:17;;;;;;;7.72;4.38;;;;;;;-4.05;100.00;102426.56;6143052;23;20534;-73
2023/01/29 08:00:44;;;;;;;4.88;4.30;;;;;;;-4.05;100.00;102408.63;6170897;23;20025;-71
2023/01/29 08:03:14;;;;;;;2.97;2.85;;;;;;;-3.49;100.00;102496.09;6138576;23;20029;-73
2023/01/29 08:05:42;;;;;;;5.28;4.85;;;;;;;-3.51;100.00;102469.47;6171369;23;20375;-73
2023/01/29 08:08:08;;;;;;;5.57;3.75;;;;;;;-3.87;100.00;102405.81;6115921;23;20030;-73
2023/01/29 08:10:35;;;;;;;4.18;3.80;;;;;;;-3.77;100.00;102416.38;6134017;23;20232;-72
2023/01/29 08:13:03;;;;;;;5.72;3.40;;;;;;;-4.17;100.00;102327.81;6137077;23;20026;-72
2023/01/29 08:15:30;;;;;;;9.00;5.63;;;;;;;-3.17;100.00;102487.72;6118249;23;20181;-74
2023/01/29 08:17:56;;;;;;;4.30;4.00;;;;;;;-3.56;100.00;102436.78;6142258;23;20037;-74
2023/01/29 08:20:24;;;;;;;7.57;4.93;;;;;;;-3.12;100.00;102493.88;6147204;23;20416;-72
2023/01/29 08:22:59;;;;;;;5.90;4.55;;;;;;;-3.11;100.00;102483.63;6140984;23;20035;-73
2023/01/29 08:25:25;;;;;;;4.38;4.07;;;;;;;-3.04;100.00;102498.44;6167841;23;20490;-74
2023/01/29 08:27:52;;;;;;;3.95;3.65;;;;;;;-3.02;100.00;102489.09;6138202;23;20029;-75
2023/01/29 08:30:19;;;;;;;3.20;3.03;;;;;;;-2.95;100.00;102491.84;6155113;23;20490;-72
2023/01/29 08:32:45;;;;;;;4.18;3.88;;;;;;;-3.09;100.00;102468.28;6141035;23;20329;-73
2023/01/29 08:35:12;;;;;;;3.53;3.13;;;;;;;-2.89;100.00;102510.03;6169983;23;20024;-72
2023/01/29 08:37:38;;;;;;;3.63;3.30;;;;;;;-3.28;100.00;102431.75;6118334;23;20086;-73
2023/01/29 08:40:08;;;;;;;6.50;5.18;;;;;;;-3.15;100.00;102463.81;6164600;23;20245;-73
2023/01/29 08:42:34;;;;;;;5.40;5.05;;;;;;;-3.15;100.00;102424.44;6138787;23;20024;-75
2023/01/29 08:45:00;;;;;;;5.93;4.65;;;;;;;-2.90;100.00;102451.78;6167038;23;20036;-72
2023/01/29 08:47:27;;;;;;;3.47;3.28;;;;;;;-2.67;100.00;102484.19;6136873;23;20026;-74
2023/01/29 08:49:54;;;;;;;3.92;3.70;;;;;;;-2.99;100.00;102403.53;6136380;23;20070;-74
2023/01/29 08:52:21;;;;;;;4.03;3.72;;;;;;;-3.03;100.00;102383.72;6136014;23;20086;-73
2023/01/29 08:54:47;;;;;;;3.50;3.30;;;;;;;-3.81;100.00;102251.25;6166821;23;20077;-73
2023/01/29 08:57:13;;;;;;;8.18;5.28;;;;;;;-3.04;100.00;102379.44;6137873;23;20013;-73
2023/01/29 08:59:40;;;;;;;3.00;2.80;;;;;;;-2.45;100.00;102462.56;6141570;23;20078;-72
2023/01/29 09:02:09;;;;;;;5.40;5.03;;;;;;;-2.42;100.00;102464.38;6142653;23;20009;-75
2023/01/29 09:04:35;;;;;;;5.30;4.70;;;;;;;-2.86;100.00;102389.41;6109645;23;20021;-73
2023/01/29 09:07:02;;;;;;;15.80;6.97;;;;;;;-2.72;100.00;102410.38;6171068;23;20012;-73
2023/01/29 09:09:28;;;;;;;4.35;3.65;;;;;;;-2.25;100.00;102473.44;6136948;23;20499;-73
2023/01/29 09:11:55;;;;;;;4.32;4.05;;;;;;;-2.24;100.00;102462.34;6141777;23;20293;-72
2023/01/29 09:14:21;;;;;;;4.57;4.28;;;;;;;-2.13;100.00;102464.34;6142162;23;20073;-73
2023/01/29 09:16:50;;;;;;;3.65;3.50;;;;;;;-2.02;100.00;102462.97;6144982;23;20021;-73
2023/01/29 09:19:16;;;;;;;3.50;3.38;;;;;;;-2.50;100.00;102361.34;6142520;23;20044;-75
2023/01/29 09:21:43;;;;;;;4.53;4.22;;;;;;;-1.82;100.00;102459.25;6137885;23;20021;-73
2023/01/29 09:24:09;;;;;;;2.97;2.88;;;;;;;-1.90;100.00;102424.72;6172187;23;20375;-73
2023/01/29 09:26:36;;;;;;;4.32;4.13;;;;;;;-1.73;100.00;102434.59;6115588;23;20202;-74
2023/01/29 09:29:02;;;;;;;4.22;3.92;;;;;;;-1.56;100.00;102443.63;6124760;23;20016;-74
2023/01/29 09:31:28;;;;;;;4.68;4.35;;;;;;;-1.68;100.00;102453.59;6143164;23;20017;-72
2023/01/29 09:33:55;;;;;;;4.60;3.90;;;;;;;-1.87;100.00;102408.47;6169621;23;20470;-72
2023/01/29 09:36:21;;;;;;;5.00;4.35;;;;;;;-1.51;100.00;102447.16;6114692;23;20055;-72
2023/01/29 09:38:48;;;;;;;5.97;4.55;;;;;;;-1.43;100.00;102460.25;6171217;23;20238;-73
2023/01/29 09:41:38;;;;;;;2.80;2.70;;;;;;;-1.26;100.00;102456.41;6116789;23;20029;-72
2023/01/29 09:44:17;;;;;;;3.90;3.67;;;;;;;-1.56;100.00;102388.66;6142577;23;20449;-73
2023/01/29 09:46:47;;;;;;;4.97;4.47;;;;;;;-1.10;100.00;102446.47;6115321;23;20514;-73
2023/01/29 09:49:46;;;;;;;6.82;5.72;;;;;;;-0.97;100.00;102457.94;6168170;23;20025;-73
2023/01/29 09:52:18;;;;;;;5.68;4.85;;;;;;;-0.94;100.00;102451.16;6134824;23;20103;-73
2023/01/29 09:54:54;;;;;;;6.95;4.28;;;;;;;-0.78;100.00;102444.66;6139853;23;20016;-72
2023/01/29 09:57:59;;;;;;;5.53;3.75;;;;;;;-0.66;100.00;102442.34;6114004;23;20305;-74
2023/01/29 10:00:53;;;;;;;6.40;4.57;;;;;;;-1.06;100.00;102329.78;6114730;23;20236;-74
2023/01/29 10:03:53;;;;;;;6.72;4.10;;;;;;;-0.27;100.00;102432.84;6110011;23;20066;-73
2023/01/29 10:06:35;;;;;;;4.72;4.43;;;;;;;-0.43;100.00;102400.72;6136775;23;20005;-73
2023/01/29 10:09:40;;;;;;;7.18;5.60;;;;;;;-0.05;100.00;102432.44;6141227;23;20080;-74
2023/01/29 10:12:12;;;;;;;7.70;5.53;;;;;;;0.10;100.00;102434.47;6115304;23;20035;-73
2023/01/29 10:14:45;;;;;;;6.10;4.63;;;;;;;-0.35;100.00;102369.91;6145041;23;20135;-72
2023/01/29 10:17:30;;;;;;;4.90;4.47;;;;;;;0.08;100.00;102443.91;6141951;23;20514;-73
2023/01/29 10:20:25;;;;;;;7.45;4.43;;;;;;;0.21;100.00;102454.44;6139022;23;20555;-75
2023/01/29 10:23:09;;;;;;;7.72;6.93;;;;;;;0.24;100.00;102449.31;6148435;23;20341;-74
2023/01/29 10:25:39;;;;;;;5.85;5.32;;;;;;;-0.40;100.00;102338.88;6171727;23;20016;-74
2023/01/29 10:28:30;;;;;;;4.40;4.20;;;;;;;0.05;100.00;102406.81;6142547;23;20086;-74
2023/01/29 10:31:01;;;;;;;7.93;6.20;;;;;;;0.23;100.00;102445.88;6144961;23;20008;-73
2023/01/29 10:33:38;;;;;;;4.95;4.57;;;;;;;0.28;100.00;102441.69;6136000;23;20033;-74
2023/01/29 10:36:47;;;;;;;9.55;4.90;;;;;;;0.19;100.00;102416.53;6168200;23;20204;-73
2023/01/29 10:39:19;;;;;;;5.22;4.90;;;;;;;0.25;100.00;102430.44;6115958;23;20082;-73
2023/01/29 10:42:13;;;;;;;8.90;6.68;;;;;;;0.37;100.00;102441.84;6159501;23;20086;-74
2023/01/29 10:45:04;;;;;;;5.88;5.28;;;;;;;0.35;100.00;102432.31;6151400;23;20028;-77
2023/01/29 10:47:59;;;;;;;14.30;5.60;;;;;;;-0.38;100.00;102323.41;6184761;23;20026;-75
2023/01/29 10:50:56;;;;;;;5.72;5.32;;;;;;;0.08;100.00;102404.28;6148125;23;20083;-76
2023/01/29 10:53:42;;;;;;;7.78;5.85;;;;;;;0.08;100.00;102427.50;6124403;23;20214;-76
2023/01/29 10:56:36;;;;;;;7.13;5.10;;;;;;;0.22;100.00;102417.44;6118451;23;20020;-75
2023/01/29 10:59:15;;;;;;;3.75;3.45;;;;;;;-1.19;100.00;102189.53;6143330;23;20418;-75
2023/01/29 11:01:42;;;;;;;8.88;4.22;;;;;;;-0.07;100.00;102351.53;6137200;23;20041;-75
2023/01/29 11:04:11;;;;;;;9.20;4.72;;;;;;;-0.84;100.00;102189.38;6121724;23;20129;-74
2023/01/29 11:06:38;;;;;;;8.20;5.28;;;;;;;0.07;100.00;102310.50;6164582;23;20020;-74
2023/01/29 11:09:13;;;;;;;5.88;5.35;;;;;;;-0.51;100.00;102189.09;6119653;23;20013;-73
2023/01/29 11:11:45;;;;;;;7.07;5.30;;;;;;;0.78;100.00;102382.25;6142678;23;20429;-73
2023/01/29 11:14:26;;;;;;;11.43;6.07;;;;;;;0.82;100.00;102374.53;6165933;23;20033;-73
2023/01/29 11:16:52;;;;;;;6.13;5.55;;;;;;;0.76;100.00;102342.59;6116952;23;20338;-73
2023/01/29 11:19:35;;;;;;;6.95;6.30;;;;;;;0.95;99.45;102363.53;6117738;23;20271;-74
2023/01/29 11:22:03;;;;;;;6.75;5.55;;;;;;;0.96;98.65;102365.25;6137755;23;20082;-73
2023/01/29 11:24:29;;;;;;;7.85;6.32;;;;;;;0.54;97.21;102286.25;6172715;23;20514;-72
2023/01/29 11:26:58;;;;;;;8.35;5.20;;;;;;;1.04;97.00;102352.44;6143048;23;20171;-73
2023/01/29 11:29:41;;;;;;;7.13;6.32;;;;;;;0.72;96.22;102294.31;6146391;23;20089;-72
2023/01/29 11:32:34;;;;;;;7.95;4.28;;;;;;;0.61;95.26;102285.53;6123761;23;20009;-73
2023/01/29 11:35:19;;;;;;;4.35;4.07;;;;;;;1.02;95.61;102342.09;6139270;23;20027;-72
2023/01/29 11:37:46;;;;;;;6.82;4.97;;;;;;;0.59;94.67;102258.81;6136755;23;20025;-73
2023/01/29 11:40:19;;;;;;;11.43;4.75;;;;;;;1.08;94.68;102336.13;6116660;23;20609;-74
2023/01/29 11:42:46;;;;;;;15.63;6.35;;;;;;;1.05;94.03;102325.78;6148066;23;20087;-74
2023/01/29 11:45:18;;;;;;;6.57;5.40;;;;;;;0.96;93.75;102329.06;6109141;23;20366;-72
2023/01/29 11:47:48;;;;;;;;;;;;;;;0.76;93.53;102279.69;6142417;23;20027;-74
2023/01/29 11:50:33;;;;;;;9.52;4.40;;;;;;;0.65;92.97;102256.31;6143028;23;19916;-73
2023/01/29 11:53:05;;;;;;;5.43;4.97;;;;;;;1.02;93.94;102303.31;6133191;23;20083;-72
2023/01/29 11:55:34;;;;;;;9.75;5.53;;;;;;;1.01;93.45;102283.50;6163354;23;20042;-74
2023/01/29 11:58:23;;;;;;;5.63;5.22;;;;;;;0.66;93.14;102221.88;6141938;23;20039;-73
2023/01/29 12:00:53;;;;;;;4.93;4.63;;;;;;;0.90;93.08;102248.88;6165188;23;20089;-73
2023/01/29 12:03:40;;;;;;;9.63;8.32;;;;;;;1.15;93.28;102279.34;6114612;23;20020;-73
2023/01/29 12:06:18;;;;;;;9.65;5.68;;;;;;;0.71;93.65;102193.50;6156462;23;20012;-76
2023/01/29 12:08:56;;;;;;;7.38;6.00;;;;;;;0.77;93.17;102188.41;6140166;23;20036;-75
2023/01/29 12:11:28;;;;;;;5.70;5.20;;;;;;;1.42;93.62;102267.59;6139071;23;21124;-75
2023/01/29 12:13:58;;;;;;;12.65;7.20;;;;;;;0.97;93.17;102183.47;6113507;23;20009;-75